TimePDT,TemperatureF,Dew PointF,Humidity,Sea Level PressureIn,VisibilityMPH,Wind Direction,Wind SpeedMPH,Gust SpeedMPH,PrecipitationIn,Events,Conditions,WindDirDegrees,DateUTC
12:53 AM,54.0,50.0,86,30.03,10.0,NE,4.6,-,N/A,,Clear,50,2011-10-08 07:53:00
1:53 AM,51.1,48.0,89,30.03,10.0,Calm,Calm,-,N/A,,Clear,0,2011-10-08 08:53:00
2:53 AM,51.1,46.9,86,30.03,10.0,Calm,Calm,-,N/A,,Clear,0,2011-10-08 09:53:00
3:53 AM,50.0,46.0,86,30.01,10.0,Calm,Calm,-,N/A,,Clear,0,2011-10-08 10:53:00
4:53 AM,48.9,44.1,83,30.01,10.0,Calm,Calm,-,N/A,,Clear,0,2011-10-08 11:53:00
6:53 AM,46.9,44.1,90,30.02,10.0,Calm,Calm,-,N/A,,Clear,0,2011-10-08 13:53:00
7:53 AM,52.0,46.0,80,30.04,10.0,Calm,Calm,-,N/A,,Clear,0,2011-10-08 14:53:00
8:53 AM,60.1,46.9,62,30.06,10.0,Calm,Calm,-,N/A,,Clear,0,2011-10-08 15:53:00
9:53 AM,64.9,45.0,48,30.06,10.0,Calm,Calm,-,N/A,,Clear,0,2011-10-08 16:53:00
10:53 AM,68.0,45.0,43,30.06,10.0,SW,6.9,-,N/A,,Clear,220,2011-10-08 17:53:00
11:53 AM,69.1,45.0,42,30.05,10.0,South,5.8,-,N/A,,Partly Cloudy,190,2011-10-08 18:53:00
12:53 PM,69.1,48.9,49,30.03,10.0,WSW,8.1,-,N/A,,Clear,250,2011-10-08 19:53:00
1:53 PM,69.1,48.0,47,30.00,10.0,WSW,10.4,-,N/A,,Clear,250,2011-10-08 20:53:00
2:53 PM,70.0,44.1,39,29.98,10.0,West,9.2,-,N/A,,Clear,260,2011-10-08 21:53:00
3:53 PM,71.1,43.0,36,29.97,10.0,WSW,11.5,-,N/A,,Clear,250,2011-10-08 22:53:00
4:53 PM,70.0,45.0,41,29.95,10.0,West,8.1,-,N/A,,Clear,260,2011-10-08 23:53:00
5:53 PM,63.0,55.9,78,29.94,10.0,SSE,8.1,-,N/A,,Clear,150,2011-10-09 00:53:00
6:53 PM,60.1,55.9,86,29.94,10.0,ESE,4.6,-,N/A,,Clear,120,2011-10-09 01:53:00
7:53 PM,59.0,55.9,90,29.95,9.0,SE,3.5,-,N/A,,Clear,130,2011-10-09 02:53:00
8:53 PM,57.0,55.0,93,29.95,7.0,SE,3.5,-,N/A,,Clear,140,2011-10-09 03:53:00
9:53 PM,57.0,55.0,93,29.96,6.0,Calm,Calm,-,N/A,,Clear,0,2011-10-09 04:53:00
10:53 PM,55.0,54.0,96,29.96,6.0,Calm,Calm,-,N/A,,Clear,0,2011-10-09 05:53:00
11:53 PM,54.0,52.0,93,29.96,10.0,Calm,Calm,-,N/A,,Clear,0,2011-10-09 06:53:00